BHE114 ZPPP-ZSNJ
Flight info
| Callsign | BHE114 |
|---|---|
| Flight time | 2h 16m |
| Altitude | 37100 |
| Route | NODIB1Y NODIB W137 LPS A581 WHA R343 HFE W51 LEGIV W164 OREVO |
| Aircraft | A320/M-SDE3FGHIRWY/LB1 |
Departure
| Time | 2026-05-04 13:41 |
|---|---|
| Airport | Kunming Changshui International Airport (ZPPP) |
Arrival
| Time | 2026-05-04 15:57 |
|---|---|
| Airport | Nanjing Lukou International Airport (ZSNJ) |
| Time | Latitude | Longitude | Altitude | Speed | Heading |
|---|---|---|---|---|---|
| 2026-05-04 13:24 | 25.10617 | 102.93007 | 6901 ft | 0 kts | 252° |
| 2026-05-04 13:27 | 25.10624 | 102.93030 | 6901 ft | 4 kts | 252° |
| 2026-05-04 13:27 | 25.10632 | 102.93058 | 6901 ft | 4 kts | 252° |
| 2026-05-04 13:28 | 25.10640 | 102.93087 | 6901 ft | 4 kts | 252° |
| 2026-05-04 13:28 | 25.10646 | 102.93110 | 6901 ft | 4 kts | 262° |
| 2026-05-04 13:28 | 25.10645 | 102.93138 | 6901 ft | 4 kts | 291° |
| 2026-05-04 13:28 | 25.10637 | 102.93155 | 6901 ft | 0 kts | 309° |
| 2026-05-04 13:30 | 25.10643 | 102.93148 | 6900 ft | 5 kts | 309° |
| 2026-05-04 13:31 | 25.10694 | 102.93091 | 6901 ft | 12 kts | 335° |
| 2026-05-04 13:31 | 25.10772 | 102.93065 | 6902 ft | 11 kts | 342° |
| 2026-05-04 13:31 | 25.10835 | 102.93029 | 6903 ft | 11 kts | 308° |
| 2026-05-04 13:31 | 25.10891 | 102.92949 | 6903 ft | 14 kts | 308° |
| 2026-05-04 13:32 | 25.10959 | 102.92855 | 6921 ft | 18 kts | 308° |
| 2026-05-04 13:32 | 25.11037 | 102.92746 | 6916 ft | 19 kts | 308° |
| 2026-05-04 13:32 | 25.11107 | 102.92707 | 6907 ft | 10 kts | 28° |
| 2026-05-04 13:32 | 25.11176 | 102.92767 | 6904 ft | 15 kts | 38° |
| 2026-05-04 13:33 | 25.11267 | 102.92847 | 6904 ft | 20 kts | 38° |
| 2026-05-04 13:33 | 25.11379 | 102.92944 | 6903 ft | 21 kts | 38° |
| 2026-05-04 13:33 | 25.11498 | 102.93048 | 6903 ft | 22 kts | 38° |
| 2026-05-04 13:33 | 25.11622 | 102.93157 | 6902 ft | 24 kts | 38° |
| 2026-05-04 13:34 | 25.11750 | 102.93268 | 6901 ft | 23 kts | 38° |
| 2026-05-04 13:34 | 25.11879 | 102.93378 | 6900 ft | 24 kts | 38° |
| 2026-05-04 13:34 | 25.12013 | 102.93494 | 6900 ft | 25 kts | 38° |
| 2026-05-04 13:34 | 25.12146 | 102.93609 | 6900 ft | 24 kts | 38° |
| 2026-05-04 13:35 | 25.12279 | 102.93726 | 6900 ft | 25 kts | 38° |
| 2026-05-04 13:35 | 25.12556 | 102.93966 | 6898 ft | 25 kts | 38° |
| 2026-05-04 13:35 | 25.12684 | 102.94078 | 6896 ft | 20 kts | 39° |
| 2026-05-04 13:36 | 25.12794 | 102.94171 | 6896 ft | 18 kts | 38° |
| 2026-05-04 13:36 | 25.12886 | 102.94251 | 6896 ft | 14 kts | 37° |
| 2026-05-04 13:36 | 25.12943 | 102.94283 | 6896 ft | 7 kts | 353° |
| 2026-05-04 13:36 | 25.12971 | 102.94252 | 6895 ft | 5 kts | 307° |
| 2026-05-04 13:37 | 25.12973 | 102.94249 | 6896 ft | 0 kts | 307° |
| 2026-05-04 13:39 | 25.12998 | 102.94212 | 6895 ft | 10 kts | 307° |
| 2026-05-04 13:39 | 25.13026 | 102.94139 | 6893 ft | 10 kts | 247° |
| 2026-05-04 13:39 | 25.12969 | 102.94083 | 6894 ft | 12 kts | 218° |
| 2026-05-04 13:40 | 25.12825 | 102.93957 | 6895 ft | 56 kts | 218° |
| 2026-05-04 13:40 | 25.12344 | 102.93539 | 6900 ft | 117 kts | 218° |
| 2026-05-04 13:40 | 25.11562 | 102.92858 | 6905 ft | 167 kts | 218° |
| 2026-05-04 13:40 | 25.10606 | 102.92027 | 7404 ft | 174 kts | 218° |
| 2026-05-04 13:41 | 25.09739 | 102.91109 | 8161 ft | 174 kts | 233° |
| 2026-05-04 13:41 | 25.09001 | 102.90059 | 8822 ft | 173 kts | 235° |
| 2026-05-04 13:41 | 25.08245 | 102.88936 | 8982 ft | 197 kts | 236° |
| 2026-05-04 13:42 | 25.06478 | 102.86224 | 9421 ft | 242 kts | 236° |
| 2026-05-04 13:42 | 25.05448 | 102.84659 | 9862 ft | 257 kts | 236° |
| 2026-05-04 13:42 | 25.04373 | 102.83057 | 10587 ft | 262 kts | 235° |
| 2026-05-04 13:42 | 25.03273 | 102.81433 | 11309 ft | 266 kts | 236° |
| 2026-05-04 13:43 | 25.02159 | 102.79793 | 12049 ft | 269 kts | 236° |
| 2026-05-04 13:43 | 25.01034 | 102.78136 | 12802 ft | 272 kts | 237° |
| 2026-05-04 13:43 | 24.99910 | 102.76481 | 13534 ft | 275 kts | 237° |
| 2026-05-04 13:43 | 24.98710 | 102.74826 | 14233 ft | 281 kts | 227° |
| 2026-05-04 13:44 | 24.96975 | 102.73798 | 14815 ft | 296 kts | 195° |
| 2026-05-04 13:44 | 24.94886 | 102.73913 | 15403 ft | 311 kts | 163° |
| 2026-05-04 13:44 | 24.93053 | 102.75209 | 15984 ft | 321 kts | 132° |
| 2026-05-04 13:44 | 24.91879 | 102.77318 | 16572 ft | 327 kts | 113° |
| 2026-05-04 13:45 | 24.91045 | 102.79671 | 17136 ft | 333 kts | 111° |
| 2026-05-04 13:45 | 24.90216 | 102.82067 | 17736 ft | 337 kts | 111° |
| 2026-05-04 13:45 | 24.89378 | 102.84492 | 18336 ft | 341 kts | 111° |
| 2026-05-04 13:45 | 24.88459 | 102.86880 | 18875 ft | 345 kts | 118° |
| 2026-05-04 13:46 | 24.87295 | 102.89201 | 19401 ft | 347 kts | 123° |
| 2026-05-04 13:46 | 24.85995 | 102.91454 | 19957 ft | 350 kts | 126° |
| 2026-05-04 13:46 | 24.84616 | 102.93724 | 20181 ft | 366 kts | 126° |
| 2026-05-04 13:46 | 24.83180 | 102.96110 | 20298 ft | 383 kts | 122° |
| 2026-05-04 13:47 | 24.82159 | 102.98880 | 20406 ft | 400 kts | 101° |
| 2026-05-04 13:47 | 24.82047 | 103.01981 | 20543 ft | 414 kts | 79° |
| 2026-05-04 13:47 | 24.82932 | 103.05007 | 20663 ft | 421 kts | 58° |
| 2026-05-04 13:47 | 24.84713 | 103.07559 | 20853 ft | 422 kts | 37° |
| 2026-05-04 13:48 | 24.87029 | 103.09468 | 21229 ft | 423 kts | 30° |
| 2026-05-04 13:48 | 24.89455 | 103.11327 | 21682 ft | 427 kts | 30° |
| 2026-05-04 13:48 | 24.91904 | 103.13200 | 22079 ft | 430 kts | 30° |
| 2026-05-04 13:48 | 24.94370 | 103.15091 | 22532 ft | 434 kts | 30° |
| 2026-05-04 13:49 | 24.96854 | 103.17005 | 22980 ft | 437 kts | 30° |
| 2026-05-04 13:49 | 24.99354 | 103.18929 | 23413 ft | 440 kts | 30° |
| 2026-05-04 13:49 | 25.01879 | 103.20868 | 23829 ft | 443 kts | 30° |
| 2026-05-04 13:49 | 25.04412 | 103.22819 | 24181 ft | 446 kts | 30° |
| 2026-05-04 13:50 | 25.06963 | 103.24786 | 24543 ft | 448 kts | 30° |
| 2026-05-04 13:50 | 25.09492 | 103.26733 | 24885 ft | 451 kts | 30° |
| 2026-05-04 13:50 | 25.12072 | 103.28713 | 25218 ft | 453 kts | 30° |
| 2026-05-04 13:50 | 25.14669 | 103.30704 | 25542 ft | 456 kts | 30° |
| 2026-05-04 13:51 | 25.17278 | 103.32707 | 25857 ft | 459 kts | 30° |
| 2026-05-04 13:51 | 25.19904 | 103.34729 | 26167 ft | 461 kts | 29° |
| 2026-05-04 13:51 | 25.22538 | 103.36763 | 26455 ft | 464 kts | 29° |
| 2026-05-04 13:51 | 25.25192 | 103.38812 | 26761 ft | 467 kts | 29° |
| 2026-05-04 13:52 | 25.30505 | 103.42918 | 27348 ft | 472 kts | 29° |
| 2026-05-04 13:52 | 25.33200 | 103.45005 | 27669 ft | 474 kts | 28° |
| 2026-05-04 13:52 | 25.35909 | 103.47106 | 27980 ft | 476 kts | 28° |
| 2026-05-04 13:53 | 25.38625 | 103.49212 | 28271 ft | 478 kts | 28° |
| 2026-05-04 13:53 | 25.41355 | 103.51328 | 28559 ft | 480 kts | 28° |
| 2026-05-04 13:53 | 25.44098 | 103.53453 | 28841 ft | 482 kts | 28° |
| 2026-05-04 13:54 | 25.49619 | 103.57732 | 29368 ft | 487 kts | 28° |
| 2026-05-04 13:54 | 25.52227 | 103.60101 | 29607 ft | 497 kts | 37° |
| 2026-05-04 13:54 | 25.56534 | 103.66268 | 30044 ft | 515 kts | 52° |
| 2026-05-04 13:55 | 25.58465 | 103.69614 | 30259 ft | 517 kts | 51° |
| 2026-05-04 13:55 | 25.62368 | 103.76328 | 30681 ft | 518 kts | 51° |
| 2026-05-04 13:55 | 25.64322 | 103.79677 | 30941 ft | 517 kts | 51° |
| 2026-05-04 13:56 | 25.66271 | 103.83021 | 31199 ft | 517 kts | 51° |
| 2026-05-04 13:56 | 25.68215 | 103.86368 | 31464 ft | 516 kts | 51° |
| 2026-05-04 13:56 | 25.72049 | 103.93010 | 32022 ft | 514 kts | 52° |
| 2026-05-04 13:57 | 25.73969 | 103.96340 | 32288 ft | 513 kts | 52° |
| 2026-05-04 13:57 | 25.75896 | 103.99676 | 32566 ft | 512 kts | 51° |
| 2026-05-04 13:58 | 25.81668 | 104.09641 | 33339 ft | 511 kts | 51° |
| 2026-05-04 13:58 | 25.85553 | 104.16242 | 33853 ft | 510 kts | 51° |
| 2026-05-04 13:58 | 25.87471 | 104.19490 | 34161 ft | 509 kts | 51° |
| 2026-05-04 13:59 | 25.89409 | 104.22776 | 34431 ft | 508 kts | 51° |
| 2026-05-04 13:59 | 25.91341 | 104.26060 | 34672 ft | 508 kts | 51° |
| 2026-05-04 13:59 | 25.95183 | 104.32628 | 35140 ft | 506 kts | 51° |
| 2026-05-04 14:00 | 25.97093 | 104.35905 | 35375 ft | 505 kts | 51° |
| 2026-05-04 14:00 | 26.00921 | 104.42448 | 35811 ft | 503 kts | 49° |
| 2026-05-04 14:00 | 26.03049 | 104.45487 | 36021 ft | 494 kts | 40° |
| 2026-05-04 14:01 | 26.05501 | 104.48104 | 36217 ft | 484 kts | 32° |
| 2026-05-04 14:01 | 26.08057 | 104.50463 | 36407 ft | 483 kts | 32° |
| 2026-05-04 14:01 | 26.13215 | 104.55229 | 36843 ft | 482 kts | 32° |
| 2026-05-04 14:02 | 26.15786 | 104.57615 | 37046 ft | 480 kts | 32° |
| 2026-05-04 14:02 | 26.18348 | 104.59998 | 37202 ft | 480 kts | 32° |
| 2026-05-04 14:02 | 26.20910 | 104.62387 | 37241 ft | 481 kts | 32° |
| 2026-05-04 14:03 | 26.26022 | 104.67157 | 37228 ft | 480 kts | 32° |
| 2026-05-04 14:03 | 26.31114 | 104.71896 | 37229 ft | 480 kts | 32° |
| 2026-05-04 14:04 | 26.38799 | 104.79062 | 37225 ft | 480 kts | 32° |
| 2026-05-04 14:04 | 26.43924 | 104.83852 | 37246 ft | 481 kts | 32° |
| 2026-05-04 14:05 | 26.51610 | 104.91046 | 37231 ft | 481 kts | 32° |
| 2026-05-04 14:06 | 26.56705 | 104.95824 | 37219 ft | 481 kts | 32° |
| 2026-05-04 14:06 | 26.61798 | 105.00692 | 37208 ft | 487 kts | 37° |
| 2026-05-04 14:07 | 26.65885 | 105.06883 | 37202 ft | 506 kts | 57° |
| 2026-05-04 14:07 | 26.68810 | 105.14098 | 37201 ft | 510 kts | 59° |
| 2026-05-04 14:08 | 26.71717 | 105.21338 | 37185 ft | 511 kts | 59° |
| 2026-05-04 14:08 | 26.74608 | 105.28541 | 37192 ft | 511 kts | 59° |
| 2026-05-04 14:09 | 26.78974 | 105.39446 | 37191 ft | 512 kts | 59° |
| 2026-05-04 14:10 | 26.83336 | 105.50371 | 37216 ft | 513 kts | 60° |
| 2026-05-04 14:10 | 26.86219 | 105.57613 | 37210 ft | 513 kts | 60° |
| 2026-05-04 14:11 | 26.89114 | 105.64908 | 37218 ft | 513 kts | 60° |
| 2026-05-04 14:11 | 26.93459 | 105.75875 | 37226 ft | 514 kts | 59° |
| 2026-05-04 14:12 | 26.96357 | 105.83203 | 37222 ft | 514 kts | 59° |
| 2026-05-04 14:13 | 27.00687 | 105.94146 | 37221 ft | 514 kts | 59° |
| 2026-05-04 14:13 | 27.03577 | 106.01481 | 37222 ft | 514 kts | 59° |
| 2026-05-04 14:14 | 27.06604 | 106.08733 | 37217 ft | 512 kts | 56° |
| 2026-05-04 14:14 | 27.11558 | 106.19257 | 37215 ft | 511 kts | 55° |
| 2026-05-04 14:15 | 27.18104 | 106.33447 | 37216 ft | 513 kts | 56° |
| 2026-05-04 14:16 | 27.22939 | 106.44180 | 37210 ft | 513 kts | 56° |
| 2026-05-04 14:17 | 27.27786 | 106.54851 | 37220 ft | 513 kts | 56° |
| 2026-05-04 14:18 | 27.32107 | 106.64379 | 37222 ft | 514 kts | 56° |
| 2026-05-04 14:19 | 27.38571 | 106.78730 | 37214 ft | 514 kts | 56° |
| 2026-05-04 14:19 | 27.41796 | 106.85923 | 37196 ft | 514 kts | 56° |
| 2026-05-04 14:20 | 27.45012 | 106.93116 | 37201 ft | 515 kts | 56° |
| 2026-05-04 14:20 | 27.48200 | 107.00282 | 37203 ft | 516 kts | 56° |
| 2026-05-04 14:21 | 27.53068 | 107.11077 | 37203 ft | 515 kts | 56° |
| 2026-05-04 14:21 | 27.56854 | 107.19432 | 37204 ft | 515 kts | 56° |
| 2026-05-04 14:22 | 27.59575 | 107.25462 | 37231 ft | 515 kts | 56° |
| 2026-05-04 14:22 | 27.62808 | 107.32618 | 37216 ft | 515 kts | 56° |
| 2026-05-04 14:23 | 27.67677 | 107.43430 | 37206 ft | 516 kts | 56° |
| 2026-05-04 14:24 | 27.70910 | 107.50653 | 37201 ft | 516 kts | 56° |
| 2026-05-04 14:24 | 27.74143 | 107.57876 | 37199 ft | 515 kts | 56° |
| 2026-05-04 14:25 | 27.77352 | 107.65061 | 37194 ft | 516 kts | 56° |
| 2026-05-04 14:25 | 27.82199 | 107.75913 | 37213 ft | 515 kts | 56° |
| 2026-05-04 14:26 | 27.85447 | 107.83130 | 37198 ft | 516 kts | 55° |
| 2026-05-04 14:26 | 27.88732 | 107.90285 | 37182 ft | 516 kts | 55° |
| 2026-05-04 14:27 | 27.92042 | 107.97487 | 37183 ft | 516 kts | 55° |
| 2026-05-04 14:27 | 27.95328 | 108.04703 | 37179 ft | 516 kts | 55° |
| 2026-05-04 14:28 | 27.98603 | 108.11924 | 37177 ft | 516 kts | 55° |
| 2026-05-04 14:28 | 28.01879 | 108.19152 | 37211 ft | 516 kts | 55° |
| 2026-05-04 14:29 | 28.08403 | 108.33579 | 37190 ft | 517 kts | 55° |
| 2026-05-04 14:30 | 28.11675 | 108.40818 | 37180 ft | 517 kts | 55° |
| 2026-05-04 14:31 | 28.16573 | 108.51691 | 37174 ft | 517 kts | 55° |
| 2026-05-04 14:32 | 28.23077 | 108.66183 | 37214 ft | 518 kts | 55° |
| 2026-05-04 14:32 | 28.26335 | 108.73469 | 37175 ft | 519 kts | 55° |
| 2026-05-04 14:33 | 28.29600 | 108.80775 | 37181 ft | 520 kts | 55° |
| 2026-05-04 14:33 | 28.32866 | 108.88102 | 37165 ft | 520 kts | 56° |
| 2026-05-04 14:34 | 28.36106 | 108.95388 | 37154 ft | 521 kts | 56° |
| 2026-05-04 14:34 | 28.39378 | 109.02722 | 37148 ft | 521 kts | 55° |
| 2026-05-04 14:35 | 28.42645 | 109.10068 | 37145 ft | 521 kts | 56° |
| 2026-05-04 14:35 | 28.45897 | 109.17437 | 37180 ft | 522 kts | 56° |
| 2026-05-04 14:36 | 28.49142 | 109.24833 | 37165 ft | 523 kts | 56° |
| 2026-05-04 14:36 | 28.52392 | 109.32234 | 37161 ft | 524 kts | 56° |
| 2026-05-04 14:37 | 28.55623 | 109.39589 | 37153 ft | 524 kts | 56° |
| 2026-05-04 14:37 | 28.58738 | 109.47103 | 37162 ft | 530 kts | 62° |
| 2026-05-04 14:38 | 28.61419 | 109.54914 | 37147 ft | 530 kts | 62° |
| 2026-05-04 14:38 | 28.64088 | 109.62747 | 37145 ft | 530 kts | 62° |
| 2026-05-04 14:39 | 28.66775 | 109.70568 | 37168 ft | 530 kts | 62° |
| 2026-05-04 14:39 | 28.69568 | 109.78339 | 37153 ft | 530 kts | 60° |
| 2026-05-04 14:40 | 28.72227 | 109.86121 | 37154 ft | 537 kts | 72° |
| 2026-05-04 14:40 | 28.72696 | 109.90369 | 37146 ft | 545 kts | 89° |
| 2026-05-04 14:40 | 28.72245 | 109.94654 | 37144 ft | 547 kts | 105° |
| 2026-05-04 14:40 | 28.70902 | 109.98688 | 37138 ft | 544 kts | 122° |
| 2026-05-04 14:41 | 28.66957 | 110.05987 | 37126 ft | 541 kts | 126° |
| 2026-05-04 14:42 | 28.58887 | 110.20433 | 37128 ft | 543 kts | 126° |
| 2026-05-04 14:42 | 28.54841 | 110.27697 | 37089 ft | 543 kts | 126° |
| 2026-05-04 14:43 | 28.51628 | 110.35468 | 37121 ft | 549 kts | 101° |
| 2026-05-04 14:43 | 28.51260 | 110.39764 | 37124 ft | 544 kts | 84° |
| 2026-05-04 14:43 | 28.51809 | 110.43973 | 37120 ft | 534 kts | 68° |
| 2026-05-04 14:44 | 28.53215 | 110.47804 | 37156 ft | 518 kts | 51° |
| 2026-05-04 14:44 | 28.55350 | 110.50999 | 37136 ft | 498 kts | 34° |
| 2026-05-04 14:44 | 28.57965 | 110.53474 | 37123 ft | 486 kts | 26° |
| 2026-05-04 14:44 | 28.60681 | 110.55763 | 37116 ft | 486 kts | 26° |
| 2026-05-04 14:45 | 28.66149 | 110.60316 | 37116 ft | 488 kts | 26° |
| 2026-05-04 14:45 | 28.71605 | 110.64846 | 37115 ft | 489 kts | 26° |
| 2026-05-04 14:46 | 28.77388 | 110.68511 | 37172 ft | 459 kts | 4° |
| 2026-05-04 14:46 | 28.80455 | 110.69175 | 37146 ft | 443 kts | 356° |
| 2026-05-04 14:46 | 28.83514 | 110.69628 | 37130 ft | 443 kts | 356° |
| 2026-05-04 14:47 | 28.89636 | 110.70526 | 37124 ft | 444 kts | 356° |
| 2026-05-04 14:47 | 28.95769 | 110.71480 | 37123 ft | 451 kts | 1° |
| 2026-05-04 14:48 | 28.98772 | 110.72597 | 37115 ft | 471 kts | 15° |
| 2026-05-04 14:48 | 29.01620 | 110.74581 | 37112 ft | 490 kts | 30° |
| 2026-05-04 14:48 | 29.04070 | 110.77377 | 37155 ft | 508 kts | 45° |
| 2026-05-04 14:48 | 29.05928 | 110.80869 | 37054 ft | 522 kts | 59° |
| 2026-05-04 14:49 | 29.07362 | 110.84697 | 36300 ft | 526 kts | 62° |
| 2026-05-04 14:49 | 29.08747 | 110.88583 | 35574 ft | 528 kts | 63° |
| 2026-05-04 14:49 | 29.10102 | 110.92491 | 35283 ft | 530 kts | 64° |
| 2026-05-04 14:49 | 29.11453 | 110.96422 | 35087 ft | 531 kts | 64° |
| 2026-05-04 14:50 | 29.14180 | 111.04291 | 35129 ft | 533 kts | 63° |
| 2026-05-04 14:50 | 29.16924 | 111.12096 | 35135 ft | 533 kts | 63° |
| 2026-05-04 14:51 | 29.19702 | 111.19959 | 35127 ft | 533 kts | 63° |
| 2026-05-04 14:51 | 29.22464 | 111.27818 | 35145 ft | 532 kts | 64° |
| 2026-05-04 14:52 | 29.25200 | 111.35650 | 35127 ft | 529 kts | 64° |
| 2026-05-04 14:52 | 29.27927 | 111.43469 | 35124 ft | 528 kts | 64° |
| 2026-05-04 14:53 | 29.30645 | 111.51290 | 35123 ft | 528 kts | 64° |
| 2026-05-04 14:53 | 29.33335 | 111.59057 | 35124 ft | 528 kts | 64° |
| 2026-05-04 14:54 | 29.36379 | 111.66660 | 35124 ft | 520 kts | 52° |
| 2026-05-04 14:54 | 29.40345 | 111.73564 | 35124 ft | 519 kts | 51° |
| 2026-05-04 14:55 | 29.44313 | 111.80478 | 35117 ft | 519 kts | 51° |
| 2026-05-04 14:55 | 29.48274 | 111.87422 | 35124 ft | 521 kts | 51° |
| 2026-05-04 14:56 | 29.52217 | 111.94333 | 35121 ft | 521 kts | 51° |
| 2026-05-04 14:56 | 29.56179 | 112.01297 | 35122 ft | 521 kts | 51° |
| 2026-05-04 14:57 | 29.60138 | 112.08273 | 35121 ft | 521 kts | 51° |
| 2026-05-04 14:57 | 29.64084 | 112.15221 | 35111 ft | 518 kts | 51° |
| 2026-05-04 14:58 | 29.68025 | 112.22171 | 35124 ft | 519 kts | 51° |
| 2026-05-04 14:58 | 29.71965 | 112.29124 | 35118 ft | 519 kts | 51° |
| 2026-05-04 14:59 | 29.75863 | 112.36046 | 35118 ft | 519 kts | 52° |
| 2026-05-04 15:00 | 29.81719 | 112.46528 | 35151 ft | 519 kts | 52° |
| 2026-05-04 15:00 | 29.85623 | 112.53513 | 35119 ft | 518 kts | 52° |
| 2026-05-04 15:01 | 29.91447 | 112.63965 | 35117 ft | 516 kts | 52° |
| 2026-05-04 15:01 | 29.95323 | 112.70929 | 35115 ft | 516 kts | 52° |
| 2026-05-04 15:02 | 29.99171 | 112.77852 | 35117 ft | 516 kts | 52° |
| 2026-05-04 15:02 | 30.03047 | 112.84839 | 35133 ft | 516 kts | 52° |
| 2026-05-04 15:03 | 30.06912 | 112.91820 | 35126 ft | 516 kts | 52° |
| 2026-05-04 15:03 | 30.10771 | 112.98795 | 35125 ft | 515 kts | 52° |
| 2026-05-04 15:04 | 30.14624 | 113.05775 | 35123 ft | 515 kts | 52° |
| 2026-05-04 15:04 | 30.18447 | 113.12715 | 35119 ft | 515 kts | 52° |
| 2026-05-04 15:05 | 30.22292 | 113.19714 | 35139 ft | 516 kts | 53° |
| 2026-05-04 15:05 | 30.26162 | 113.26673 | 35136 ft | 515 kts | 52° |
| 2026-05-04 15:06 | 30.30045 | 113.33555 | 35125 ft | 512 kts | 52° |
| 2026-05-04 15:07 | 30.35886 | 113.43921 | 35115 ft | 514 kts | 52° |
| 2026-05-04 15:07 | 30.39750 | 113.50847 | 35118 ft | 516 kts | 52° |
| 2026-05-04 15:08 | 30.43625 | 113.57829 | 35110 ft | 513 kts | 53° |
| 2026-05-04 15:08 | 30.47492 | 113.64784 | 35118 ft | 513 kts | 52° |
| 2026-05-04 15:09 | 30.51354 | 113.71731 | 35117 ft | 513 kts | 53° |
| 2026-05-04 15:09 | 30.55210 | 113.78690 | 35112 ft | 513 kts | 53° |
| 2026-05-04 15:10 | 30.60997 | 113.89149 | 35132 ft | 513 kts | 53° |
| 2026-05-04 15:11 | 30.66740 | 113.99559 | 35138 ft | 512 kts | 53° |
| 2026-05-04 15:11 | 30.70585 | 114.06523 | 35138 ft | 512 kts | 53° |
| 2026-05-04 15:12 | 30.74421 | 114.13493 | 35127 ft | 512 kts | 53° |
| 2026-05-04 15:12 | 30.78142 | 114.20570 | 35119 ft | 516 kts | 60° |
| 2026-05-04 15:13 | 30.80827 | 114.28334 | 35148 ft | 518 kts | 66° |
| 2026-05-04 15:13 | 30.83373 | 114.36101 | 35141 ft | 517 kts | 66° |
| 2026-05-04 15:14 | 30.85892 | 114.43943 | 35132 ft | 518 kts | 67° |
| 2026-05-04 15:14 | 30.88413 | 114.51797 | 35117 ft | 518 kts | 66° |
| 2026-05-04 15:15 | 30.90964 | 114.59643 | 35117 ft | 518 kts | 66° |
| 2026-05-04 15:15 | 30.93515 | 114.67491 | 35123 ft | 518 kts | 66° |
| 2026-05-04 15:16 | 30.97291 | 114.79231 | 35161 ft | 517 kts | 67° |
| 2026-05-04 15:17 | 31.01079 | 114.90984 | 35155 ft | 516 kts | 66° |
| 2026-05-04 15:17 | 31.04855 | 115.02717 | 35147 ft | 515 kts | 66° |
| 2026-05-04 15:18 | 31.07367 | 115.10555 | 35135 ft | 516 kts | 67° |
| 2026-05-04 15:19 | 31.11111 | 115.22338 | 35168 ft | 516 kts | 67° |
| 2026-05-04 15:19 | 31.14818 | 115.34049 | 35166 ft | 514 kts | 66° |
| 2026-05-04 15:20 | 31.17354 | 115.41861 | 35160 ft | 515 kts | 66° |
| 2026-05-04 15:20 | 31.19903 | 115.49674 | 35155 ft | 515 kts | 66° |
| 2026-05-04 15:21 | 31.22437 | 115.57497 | 35165 ft | 515 kts | 66° |
| 2026-05-04 15:21 | 31.24946 | 115.65316 | 34256 ft | 514 kts | 67° |
| 2026-05-04 15:22 | 31.26182 | 115.69178 | 33413 ft | 514 kts | 67° |
| 2026-05-04 15:22 | 31.27435 | 115.73093 | 32551 ft | 514 kts | 67° |
| 2026-05-04 15:22 | 31.29928 | 115.80880 | 30905 ft | 509 kts | 68° |
| 2026-05-04 15:23 | 31.31164 | 115.84751 | 30080 ft | 507 kts | 68° |
| 2026-05-04 15:23 | 31.32384 | 115.88585 | 29417 ft | 499 kts | 68° |
| 2026-05-04 15:23 | 31.33591 | 115.92356 | 28776 ft | 491 kts | 68° |
| 2026-05-04 15:23 | 31.34795 | 115.96060 | 28103 ft | 484 kts | 68° |
| 2026-05-04 15:24 | 31.37181 | 116.03325 | 26811 ft | 472 kts | 68° |
| 2026-05-04 15:24 | 31.39483 | 116.10354 | 25685 ft | 459 kts | 68° |
| 2026-05-04 15:25 | 31.40609 | 116.13820 | 25114 ft | 453 kts | 67° |
| 2026-05-04 15:25 | 31.41717 | 116.17245 | 24755 ft | 447 kts | 68° |
| 2026-05-04 15:25 | 31.42813 | 116.20642 | 24615 ft | 445 kts | 68° |
| 2026-05-04 15:26 | 31.45002 | 116.27417 | 24655 ft | 446 kts | 68° |
| 2026-05-04 15:26 | 31.46101 | 116.30815 | 24653 ft | 447 kts | 68° |
| 2026-05-04 15:26 | 31.48298 | 116.37624 | 24638 ft | 447 kts | 68° |
| 2026-05-04 15:27 | 31.49397 | 116.41030 | 24638 ft | 447 kts | 68° |
| 2026-05-04 15:27 | 31.51593 | 116.47844 | 24642 ft | 447 kts | 68° |
| 2026-05-04 15:28 | 31.53766 | 116.54623 | 24637 ft | 447 kts | 68° |
| 2026-05-04 15:28 | 31.54853 | 116.58035 | 24632 ft | 448 kts | 68° |
| 2026-05-04 15:28 | 31.57034 | 116.64882 | 24635 ft | 448 kts | 68° |
| 2026-05-04 15:29 | 31.58126 | 116.68305 | 24631 ft | 448 kts | 68° |
| 2026-05-04 15:30 | 31.62495 | 116.82006 | 24631 ft | 448 kts | 68° |
| 2026-05-04 15:30 | 31.65738 | 116.92257 | 24625 ft | 450 kts | 68° |
| 2026-05-04 15:31 | 31.67815 | 116.98850 | 24625 ft | 402 kts | 68° |
| 2026-05-04 15:31 | 31.68775 | 117.01893 | 24625 ft | 393 kts | 68° |
| 2026-05-04 15:32 | 31.71565 | 117.10856 | 24629 ft | 388 kts | 68° |
| 2026-05-04 15:32 | 31.73402 | 117.16812 | 24631 ft | 388 kts | 68° |
| 2026-05-04 15:33 | 31.75082 | 117.22839 | 24635 ft | 391 kts | 77° |
| 2026-05-04 15:34 | 31.74856 | 117.32338 | 24631 ft | 393 kts | 106° |
| 2026-05-04 15:34 | 31.73940 | 117.35357 | 24629 ft | 392 kts | 116° |
| 2026-05-04 15:34 | 31.70648 | 117.40236 | 24171 ft | 377 kts | 152° |
| 2026-05-04 15:35 | 31.65775 | 117.41661 | 23221 ft | 359 kts | 183° |
| 2026-05-04 15:35 | 31.63284 | 117.41695 | 22716 ft | 358 kts | 184° |
| 2026-05-04 15:35 | 31.60802 | 117.41705 | 22251 ft | 355 kts | 184° |
| 2026-05-04 15:36 | 31.55968 | 117.41694 | 20914 ft | 346 kts | 183° |
| 2026-05-04 15:36 | 31.53600 | 117.42053 | 20367 ft | 341 kts | 165° |
| 2026-05-04 15:36 | 31.51509 | 117.43245 | 20023 ft | 331 kts | 146° |
| 2026-05-04 15:37 | 31.49879 | 117.45108 | 19530 ft | 327 kts | 126° |
| 2026-05-04 15:37 | 31.48872 | 117.47464 | 18975 ft | 324 kts | 106° |
| 2026-05-04 15:37 | 31.48575 | 117.50057 | 18459 ft | 323 kts | 86° |
| 2026-05-04 15:37 | 31.48954 | 117.52627 | 18106 ft | 320 kts | 75° |
| 2026-05-04 15:38 | 31.49477 | 117.55156 | 17753 ft | 318 kts | 75° |
| 2026-05-04 15:38 | 31.49987 | 117.57672 | 17430 ft | 316 kts | 75° |
| 2026-05-04 15:38 | 31.50488 | 117.60166 | 17112 ft | 314 kts | 76° |
| 2026-05-04 15:38 | 31.50986 | 117.62655 | 16819 ft | 312 kts | 76° |
| 2026-05-04 15:39 | 31.51475 | 117.65093 | 16735 ft | 311 kts | 76° |
| 2026-05-04 15:39 | 31.51971 | 117.67558 | 16746 ft | 312 kts | 76° |
| 2026-05-04 15:39 | 31.52969 | 117.72509 | 16591 ft | 312 kts | 76° |
| 2026-05-04 15:40 | 31.53465 | 117.74977 | 16346 ft | 310 kts | 75° |
| 2026-05-04 15:40 | 31.53957 | 117.77425 | 16095 ft | 307 kts | 75° |
| 2026-05-04 15:40 | 31.54443 | 117.79845 | 15848 ft | 304 kts | 76° |
| 2026-05-04 15:40 | 31.54926 | 117.82239 | 15602 ft | 300 kts | 76° |
| 2026-05-04 15:41 | 31.55402 | 117.84603 | 15346 ft | 294 kts | 76° |
| 2026-05-04 15:41 | 31.55855 | 117.86854 | 15107 ft | 282 kts | 76° |
| 2026-05-04 15:41 | 31.56298 | 117.89063 | 14866 ft | 277 kts | 76° |
| 2026-05-04 15:41 | 31.56736 | 117.91254 | 14641 ft | 275 kts | 76° |
| 2026-05-04 15:42 | 31.57172 | 117.93426 | 14406 ft | 272 kts | 76° |
| 2026-05-04 15:42 | 31.57606 | 117.95585 | 14078 ft | 272 kts | 76° |
| 2026-05-04 15:42 | 31.58041 | 117.97751 | 13680 ft | 273 kts | 76° |
| 2026-05-04 15:42 | 31.58472 | 117.99912 | 13254 ft | 269 kts | 76° |
| 2026-05-04 15:43 | 31.58890 | 118.02027 | 12879 ft | 265 kts | 76° |
| 2026-05-04 15:43 | 31.59305 | 118.04128 | 12573 ft | 263 kts | 76° |
| 2026-05-04 15:43 | 31.59715 | 118.06202 | 12291 ft | 259 kts | 76° |
| 2026-05-04 15:43 | 31.60119 | 118.08240 | 11806 ft | 256 kts | 76° |
| 2026-05-04 15:44 | 31.60520 | 118.10266 | 11298 ft | 254 kts | 76° |
| 2026-05-04 15:44 | 31.60913 | 118.12249 | 10820 ft | 252 kts | 76° |
| 2026-05-04 15:44 | 31.61308 | 118.14238 | 10349 ft | 249 kts | 75° |
| 2026-05-04 15:44 | 31.61699 | 118.16206 | 9883 ft | 247 kts | 75° |
| 2026-05-04 15:45 | 31.62088 | 118.18158 | 9376 ft | 245 kts | 75° |
| 2026-05-04 15:45 | 31.62470 | 118.20099 | 8851 ft | 243 kts | 76° |
| 2026-05-04 15:45 | 31.62850 | 118.22028 | 8339 ft | 242 kts | 76° |
| 2026-05-04 15:45 | 31.63232 | 118.23949 | 7840 ft | 241 kts | 76° |
| 2026-05-04 15:46 | 31.63611 | 118.25864 | 7347 ft | 240 kts | 76° |
| 2026-05-04 15:46 | 31.63989 | 118.27778 | 6931 ft | 241 kts | 76° |
| 2026-05-04 15:46 | 31.64366 | 118.29690 | 6639 ft | 240 kts | 76° |
| 2026-05-04 15:46 | 31.64739 | 118.31596 | 6329 ft | 240 kts | 76° |
| 2026-05-04 15:47 | 31.65110 | 118.33507 | 5990 ft | 240 kts | 77° |
| 2026-05-04 15:47 | 31.65477 | 118.35389 | 5676 ft | 240 kts | 77° |
| 2026-05-04 15:47 | 31.65849 | 118.37290 | 5369 ft | 239 kts | 78° |
| 2026-05-04 15:47 | 31.66223 | 118.39186 | 5067 ft | 238 kts | 78° |
| 2026-05-04 15:48 | 31.66436 | 118.41082 | 4856 ft | 230 kts | 93° |
| 2026-05-04 15:48 | 31.66256 | 118.42892 | 4729 ft | 218 kts | 107° |
| 2026-05-04 15:48 | 31.65165 | 118.45996 | 4471 ft | 196 kts | 118° |
| 2026-05-04 15:49 | 31.64600 | 118.47441 | 4147 ft | 195 kts | 118° |
| 2026-05-04 15:49 | 31.64039 | 118.48873 | 3928 ft | 192 kts | 119° |
| 2026-05-04 15:49 | 31.63478 | 118.50300 | 3591 ft | 193 kts | 119° |
| 2026-05-04 15:49 | 31.62916 | 118.51727 | 3273 ft | 193 kts | 119° |
| 2026-05-04 15:50 | 31.62363 | 118.53128 | 3028 ft | 190 kts | 119° |
| 2026-05-04 15:50 | 31.61804 | 118.54544 | 3003 ft | 192 kts | 119° |
| 2026-05-04 15:50 | 31.61243 | 118.55970 | 3004 ft | 193 kts | 119° |
| 2026-05-04 15:50 | 31.60686 | 118.57391 | 3005 ft | 193 kts | 118° |
| 2026-05-04 15:51 | 31.60352 | 118.58938 | 3002 ft | 198 kts | 96° |
| 2026-05-04 15:51 | 31.60552 | 118.60542 | 3006 ft | 202 kts | 72° |
| 2026-05-04 15:51 | 31.61236 | 118.61991 | 3005 ft | 204 kts | 59° |
| 2026-05-04 15:51 | 31.61997 | 118.63398 | 3003 ft | 204 kts | 59° |
| 2026-05-04 15:52 | 31.62757 | 118.64809 | 3004 ft | 204 kts | 59° |
| 2026-05-04 15:52 | 31.63505 | 118.66200 | 3004 ft | 204 kts | 59° |
| 2026-05-04 15:52 | 31.64260 | 118.67605 | 3006 ft | 203 kts | 59° |
| 2026-05-04 15:52 | 31.65014 | 118.69010 | 2971 ft | 204 kts | 59° |
| 2026-05-04 15:53 | 31.65768 | 118.70414 | 2758 ft | 203 kts | 59° |
| 2026-05-04 15:53 | 31.66518 | 118.71812 | 2519 ft | 201 kts | 59° |
| 2026-05-04 15:53 | 31.67247 | 118.73170 | 2263 ft | 191 kts | 59° |
| 2026-05-04 15:53 | 31.67932 | 118.74448 | 2017 ft | 178 kts | 59° |
| 2026-05-04 15:54 | 31.68563 | 118.75624 | 1815 ft | 162 kts | 60° |
| 2026-05-04 15:54 | 31.69141 | 118.76703 | 1584 ft | 151 kts | 60° |
| 2026-05-04 15:54 | 31.69508 | 118.77386 | 1427 ft | 148 kts | 59° |
| 2026-05-04 15:54 | 31.70223 | 118.78727 | 1180 ft | 143 kts | 60° |
| 2026-05-04 15:55 | 31.70740 | 118.79699 | 1026 ft | 142 kts | 60° |
| 2026-05-04 15:55 | 31.71260 | 118.80670 | 841 ft | 139 kts | 59° |
| 2026-05-04 15:55 | 31.71773 | 118.81625 | 677 ft | 137 kts | 59° |
| 2026-05-04 15:55 | 31.72278 | 118.82567 | 481 ft | 135 kts | 59° |
| 2026-05-04 15:56 | 31.72773 | 118.83499 | 322 ft | 134 kts | 58° |
| 2026-05-04 15:56 | 31.73271 | 118.84427 | 132 ft | 134 kts | 58° |
| 2026-05-04 15:56 | 31.73591 | 118.85027 | 65 ft | 124 kts | 58° |
| 2026-05-04 15:56 | 31.73975 | 118.85746 | 52 ft | 81 kts | 58° |
| 2026-05-04 15:57 | 31.74179 | 118.86134 | 50 ft | 24 kts | 60° |
| 2026-05-04 15:57 | 31.74141 | 118.86255 | 57 ft | 12 kts | 148° |
| 2026-05-04 15:57 | 31.74097 | 118.86288 | 51 ft | 11 kts | 147° |
| 2026-05-04 15:57 | 31.74046 | 118.86276 | 54 ft | 8 kts | 238° |
| 2026-05-04 15:58 | 31.74019 | 118.86224 | 56 ft | 7 kts | 238° |
| 2026-05-04 15:58 | 31.73987 | 118.86163 | 55 ft | 6 kts | 238° |
| 2026-05-04 15:58 | 31.73973 | 118.86135 | 52 ft | 6 kts | 238° |
| 2026-05-04 15:58 | 31.73931 | 118.86056 | 54 ft | 14 kts | 238° |
| 2026-05-04 15:59 | 31.73876 | 118.85951 | 53 ft | 16 kts | 238° |
| 2026-05-04 15:59 | 31.73835 | 118.85874 | 55 ft | 18 kts | 238° |
| 2026-05-04 15:59 | 31.73769 | 118.85772 | 57 ft | 11 kts | 210° |
| 2026-05-04 15:59 | 31.73708 | 118.85799 | 58 ft | 9 kts | 149° |
| 2026-05-04 16:00 | 31.73656 | 118.85836 | 58 ft | 8 kts | 148° |
| 2026-05-04 16:00 | 31.73586 | 118.85889 | 58 ft | 17 kts | 147° |
| 2026-05-04 16:00 | 31.73476 | 118.85970 | 54 ft | 20 kts | 147° |
| 2026-05-04 16:00 | 31.73351 | 118.86064 | 58 ft | 23 kts | 147° |
| 2026-05-04 16:01 | 31.73209 | 118.86169 | 58 ft | 25 kts | 148° |
| 2026-05-04 16:01 | 31.73054 | 118.86282 | 58 ft | 26 kts | 148° |
| 2026-05-04 16:01 | 31.72915 | 118.86386 | 55 ft | 19 kts | 147° |
| 2026-05-04 16:01 | 31.72823 | 118.86454 | 55 ft | 17 kts | 148° |
| 2026-05-04 16:02 | 31.72727 | 118.86523 | 52 ft | 14 kts | 148° |
| 2026-05-04 16:02 | 31.72693 | 118.86572 | 54 ft | 6 kts | 88° |
| 2026-05-04 16:02 | 31.72741 | 118.86678 | 55 ft | 15 kts | 58° |
| 2026-05-04 16:03 | 31.72796 | 118.86779 | 57 ft | 14 kts | 57° |
| 2026-05-04 16:03 | 31.72847 | 118.86871 | 55 ft | 13 kts | 58° |
| 2026-05-04 16:03 | 31.72901 | 118.86932 | 54 ft | 8 kts | 347° |
| 2026-05-04 16:03 | 31.72949 | 118.86897 | 57 ft | 5 kts | 327° |
| 2026-05-04 16:04 | 31.72960 | 118.86889 | 53 ft | 0 kts | 328° |